KQKB/QKB METAR and TAF weather

Enter ICAO airport designator
Station Type Date Time Source
KQKB METAR 2016/10/28 03:55 UTC NOAA

KQKB 280355Z 35010G16KT 10SM SCT240 13/06 A2990 RMK A02 SLP135 T01290061


Station Type Date Time Source
KQKB Decoded METAR 2016/10/28 03:55 UTC NOAA

Station name not available
Oct 27, 2016 - 11:55 PM EDT / 2016.10.28 0355 UTC
Wind: from the N (350 degrees) at 12 MPH (10 KT) gusting to 18 MPH (16 KT):0
Visibility: 10 mile(s):0
Sky conditions: partly cloudy
Temperature: 55.2 F (12.9 C)
Dew Point: 43.0 F (6.1 C)
Relative Humidity: 63%
Pressure (altimeter): 29.9 in. Hg (1012 hPa)
ob: KQKB 280355Z 35010G16KT 10SM SCT240 13/06 A2990 RMK A02 SLP135 T01290061
cycle: 4

Station Type Date Time Source
KQKB TAF UTC NOAA

Error!


Example: see airport list